Time;durP1;ratioP1;P1;durP2;ratioP2;P2;SDS_P1;SDS_P2;PMS_P1;PMS_P2;Temp;Humidity;BMP_temperature;BMP_pressure;BME280_temperature;BME280_humidity;BME280_pressure;Samples;Min_cycle;Max_cycle;Signal;HPM_P1;HPM_P2
2023/08/02 00:00:40;;;;;;;0.00;0.00;;;16.70;99.90;;;;;;5036625;28;20038;-70
2023/08/02 00:03:05;;;;;;;0.80;0.65;;;16.70;99.90;;;;;;5046078;28;20056;-70
2023/08/02 00:05:31;;;;;;;0.10;0.10;;;16.70;99.90;;;;;;5041956;28;20453;-70
2023/08/02 00:07:57;;;;;;;0.40;0.40;;;16.70;99.90;;;;;;5031120;28;20038;-70
2023/08/02 00:10:23;;;;;;;0.00;0.00;;;16.70;99.90;;;;;;5018450;28;20128;-70
2023/08/02 00:12:51;;;;;;;0.00;0.00;;;16.70;99.90;;;;;;5029738;28;20473;-70
2023/08/02 00:15:17;;;;;;;0.00;0.00;;;16.70;99.90;;;;;;5035197;28;20053;-70
2023/08/02 00:17:42;;;;;;;0.25;0.25;;;16.70;99.90;;;;;;5038206;28;20501;-70
2023/08/02 00:20:08;;;;;;;0.10;0.10;;;16.70;99.90;;;;;;5039155;28;20045;-69
2023/08/02 00:22:34;;;;;;;0.00;0.00;;;16.70;99.90;;;;;;5044778;28;20056;-70
2023/08/02 00:24:59;;;;;;;0.10;0.10;;;16.70;99.90;;;;;;5040106;28;20046;-70
2023/08/02 00:27:25;;;;;;;0.17;0.17;;;16.70;99.90;;;;;;5037630;28;20033;-70
2023/08/02 00:29:51;;;;;;;0.00;0.00;;;16.70;99.90;;;;;;5017560;28;20053;-69
2023/08/02 00:32:18;;;;;;;0.00;0.00;;;16.60;99.90;;;;;;5038412;28;20102;-69
2023/08/02 00:34:43;;;;;;;0.00;0.00;;;16.60;99.90;;;;;;5043553;28;20041;-69
2023/08/02 00:37:09;;;;;;;0.00;0.00;;;16.60;99.90;;;;;;5037315;28;20033;-69
2023/08/02 00:39:34;;;;;;;0.08;0.08;;;16.60;99.90;;;;;;5040315;28;20045;-70
2023/08/02 00:42:00;;;;;;;0.00;0.00;;;16.60;99.90;;;;;;5039381;28;20045;-69
2023/08/02 00:44:25;;;;;;;4.05;1.33;;;16.60;99.90;;;;;;5036685;28;20444;-70
2023/08/02 00:46:51;;;;;;;0.00;0.00;;;16.60;99.90;;;;;;5045653;28;20041;-69
2023/08/02 00:49:17;;;;;;;0.20;0.20;;;16.60;99.90;;;;;;5038368;28;20652;-69
2023/08/02 00:51:42;;;;;;;0.20;0.20;;;16.60;99.90;;;;;;5038235;28;20044;-69
2023/08/02 00:54:08;;;;;;;0.00;0.00;;;16.60;99.90;;;;;;5036319;28;20088;-69
2023/08/02 00:56:34;;;;;;;0.08;0.08;;;16.60;99.90;;;;;;5040343;28;20106;-69
2023/08/02 00:59:00;;;;;;;0.00;0.00;;;16.60;99.90;;;;;;5044280;28;20033;-69
2023/08/02 01:01:25;;;;;;;0.00;0.00;;;16.60;99.90;;;;;;5029913;28;20037;-70
2023/08/02 01:03:52;;;;;;;0.10;0.10;;;16.60;99.90;;;;;;5047830;28;20052;-70
2023/08/02 01:06:41;;;;;;;0.00;0.00;;;16.60;99.90;;;;;;5038544;28;20609;-70
2023/08/02 01:09:29;;;;;;;0.25;0.25;;;16.60;99.90;;;;;;5037338;28;20124;-69
2023/08/02 01:12:00;;;;;;;0.00;0.00;;;16.60;99.90;;;;;;5034766;28;20604;-69
2023/08/02 01:14:28;;;;;;;0.00;0.00;;;16.60;99.90;;;;;;5043680;28;20040;-69
2023/08/02 01:16:54;;;;;;;0.10;0.10;;;16.60;99.90;;;;;;5038468;28;20055;-69
2023/08/02 01:19:21;;;;;;;0.00;0.00;;;16.60;99.90;;;;;;5050628;28;20115;-69
2023/08/02 01:21:47;;;;;;;0.00;0.00;;;16.60;99.90;;;;;;5049552;28;20032;-69
2023/08/02 01:24:12;;;;;;;0.00;0.00;;;16.60;99.90;;;;;;5025136;28;20063;-70
2023/08/02 01:26:42;;;;;;;0.20;0.20;;;16.60;99.90;;;;;;5039646;28;20040;-69
2023/08/02 01:29:12;;;;;;;0.15;0.15;;;16.50;99.90;;;;;;5037793;28;20492;-69
2023/08/02 01:31:39;;;;;;;0.00;0.00;;;16.50;99.90;;;;;;5022255;28;20041;-70
2023/08/02 01:34:06;;;;;;;0.10;0.10;;;16.50;99.90;;;;;;5041098;28;20064;-70
2023/08/02 01:36:32;;;;;;;0.25;0.25;;;16.50;99.90;;;;;;5035641;28;20133;-70
2023/08/02 01:38:58;;;;;;;0.28;0.28;;;16.50;99.90;;;;;;5042686;28;20119;-69
2023/08/02 01:41:24;;;;;;;0.00;0.00;;;16.50;99.90;;;;;;5043650;28;20543;-69
2023/08/02 01:43:49;;;;;;;0.00;0.00;;;16.50;99.90;;;;;;5047034;28;20048;-69
2023/08/02 01:46:15;;;;;;;0.10;0.10;;;16.50;99.90;;;;;;5044772;28;20041;-70
2023/08/02 01:48:40;;;;;;;0.00;0.00;;;16.50;99.90;;;;;;5042042;28;20084;-69
2023/08/02 01:51:06;;;;;;;0.10;0.10;;;16.50;99.90;;;;;;5050485;28;20157;-70
2023/08/02 01:53:32;;;;;;;0.32;0.32;;;16.50;99.90;;;;;;5050339;28;20051;-69
2023/08/02 01:55:58;;;;;;;0.00;0.00;;;16.60;99.90;;;;;;5042887;28;20488;-69
2023/08/02 01:58:23;;;;;;;0.08;0.08;;;16.50;99.90;;;;;;5051221;28;20037;-69
2023/08/02 02:00:49;;;;;;;1.25;1.15;;;16.60;99.90;;;;;;5045973;28;20041;-69
2023/08/02 02:03:14;;;;;;;0.43;0.43;;;16.60;99.90;;;;;;5031002;28;20137;-69
2023/08/02 02:05:40;;;;;;;0.00;0.00;;;16.60;99.90;;;;;;5025016;28;20436;-69
2023/08/02 02:08:06;;;;;;;0.60;0.38;;;16.60;99.90;;;;;;5048053;28;20398;-69
2023/08/02 02:10:31;;;;;;;0.05;0.05;;;16.60;99.90;;;;;;5039844;28;20045;-69
2023/08/02 02:12:57;;;;;;;4.88;1.10;;;16.60;99.90;;;;;;5043456;28;20107;-69
2023/08/02 02:15:23;;;;;;;0.22;0.22;;;16.60;99.90;;;;;;5034827;28;20069;-69
2023/08/02 02:17:48;;;;;;;0.10;0.10;;;16.60;99.90;;;;;;5042791;28;20442;-69
2023/08/02 02:20:14;;;;;;;0.20;0.20;;;16.60;99.90;;;;;;5046681;28;20268;-69
2023/08/02 02:22:39;;;;;;;0.05;0.05;;;16.50;99.90;;;;;;5049792;28;21913;-69
2023/08/02 02:25:05;;;;;;;0.00;0.00;;;16.60;99.90;;;;;;5038937;28;20053;-70
2023/08/02 02:27:31;;;;;;;0.00;0.00;;;16.60;99.90;;;;;;5028533;28;20048;-70
2023/08/02 02:29:57;;;;;;;0.10;0.10;;;16.60;99.90;;;;;;5052218;28;20119;-69
2023/08/02 02:32:22;;;;;;;0.20;0.10;;;16.60;99.90;;;;;;5040312;28;20042;-69
2023/08/02 02:34:48;;;;;;;0.00;0.00;;;16.60;99.90;;;;;;5025720;28;20489;-69
2023/08/02 02:37:13;;;;;;;0.10;0.10;;;16.60;99.90;;;;;;5025466;28;20037;-69
2023/08/02 02:39:39;;;;;;;0.10;0.10;;;16.60;99.90;;;;;;5042877;28;20041;-70
2023/08/02 02:42:05;;;;;;;0.00;0.00;;;16.60;99.90;;;;;;5050326;28;20049;-69
2023/08/02 02:44:44;;;;;;;0.00;0.00;;;16.60;99.90;;;;;;5025541;28;20060;-70
2023/08/02 02:47:10;;;;;;;0.00;0.00;;;16.60;99.90;;;;;;5024413;28;20106;-70
2023/08/02 02:49:36;;;;;;;0.20;0.20;;;16.60;99.90;;;;;;5038032;28;20436;-70
2023/08/02 02:52:02;;;;;;;0.32;0.08;;;16.60;99.90;;;;;;5044299;28;20071;-70
2023/08/02 02:54:27;;;;;;;0.20;0.20;;;16.60;99.90;;;;;;5048391;28;20128;-69
2023/08/02 02:56:53;;;;;;;0.13;0.10;;;16.60;99.90;;;;;;5022241;28;20072;-70
2023/08/02 02:59:18;;;;;;;0.10;0.10;;;16.60;99.90;;;;;;5045236;28;20041;-69
2023/08/02 03:01:44;;;;;;;0.10;0.10;;;16.60;99.90;;;;;;5027736;28;20079;-70
2023/08/02 03:04:09;;;;;;;1.33;0.57;;;16.50;99.90;;;;;;5045165;28;20449;-69
2023/08/02 03:06:35;;;;;;;0.00;0.00;;;16.50;99.90;;;;;;5025783;28;20040;-70
2023/08/02 03:09:01;;;;;;;0.25;0.25;;;16.50;99.90;;;;;;5045551;28;20098;-70
2023/08/02 03:11:26;;;;;;;0.20;0.20;;;16.50;99.90;;;;;;5042402;28;20033;-69
2023/08/02 03:13:52;;;;;;;0.00;0.00;;;16.50;99.90;;;;;;5040074;28;20155;-69
2023/08/02 03:16:17;;;;;;;0.00;0.00;;;16.40;99.90;;;;;;5045245;28;20707;-69
2023/08/02 03:18:43;;;;;;;0.00;0.00;;;16.50;99.90;;;;;;5028234;28;20041;-69
2023/08/02 03:21:08;;;;;;;1.17;0.70;;;16.40;99.90;;;;;;5044824;28;20055;-70
2023/08/02 03:23:34;;;;;;;0.00;0.00;;;16.40;99.90;;;;;;5022064;28;20029;-70
2023/08/02 03:26:00;;;;;;;0.00;0.00;;;16.40;99.90;;;;;;5041279;28;20163;-69
2023/08/02 03:28:26;;;;;;;0.00;0.00;;;16.30;99.90;;;;;;5037084;28;20116;-69
2023/08/02 03:30:54;;;;;;;0.00;0.00;;;16.40;99.90;;;;;;5031914;28;20052;-69
2023/08/02 03:33:20;;;;;;;0.30;0.30;;;16.40;99.90;;;;;;5023911;28;20121;-70
2023/08/02 03:35:45;;;;;;;0.10;0.10;;;16.30;99.90;;;;;;5032804;28;20270;-68
2023/08/02 03:38:11;;;;;;;0.00;0.00;;;16.30;99.90;;;;;;5044260;28;20048;-69
2023/08/02 03:40:36;;;;;;;2.65;1.08;;;16.30;99.90;;;;;;5043819;28;20182;-69
2023/08/02 03:43:02;;;;;;;0.00;0.00;;;16.30;99.90;;;;;;5039072;28;20044;-69
2023/08/02 03:45:28;;;;;;;0.10;0.10;;;16.30;99.90;;;;;;5041283;28;20528;-69
2023/08/02 03:47:53;;;;;;;0.60;0.60;;;16.40;99.90;;;;;;5040790;28;20049;-69
2023/08/02 03:50:19;;;;;;;0.00;0.00;;;16.40;99.90;;;;;;5035329;28;20075;-69
2023/08/02 03:52:45;;;;;;;0.00;0.00;;;16.40;99.90;;;;;;5045162;28;20885;-69
2023/08/02 03:55:10;;;;;;;0.00;0.00;;;16.40;99.90;;;;;;5040216;28;20056;-69
2023/08/02 03:57:36;;;;;;;0.00;0.00;;;16.40;99.90;;;;;;5037779;28;20179;-69
2023/08/02 04:00:02;;;;;;;0.10;0.10;;;16.30;99.90;;;;;;5037798;28;20048;-69
2023/08/02 04:02:28;;;;;;;0.10;0.10;;;16.40;99.90;;;;;;5042976;28;20045;-69
2023/08/02 04:04:53;;;;;;;0.00;0.00;;;16.40;99.90;;;;;;5046561;28;20037;-69
2023/08/02 04:07:19;;;;;;;0.73;0.20;;;16.40;99.90;;;;;;5035031;28;20495;-69
2023/08/02 04:09:44;;;;;;;5.15;0.25;;;16.40;99.90;;;;;;5034853;28;20044;-70
2023/08/02 04:12:10;;;;;;;0.60;0.60;;;16.40;99.90;;;;;;5026132;28;21051;-70
2023/08/02 04:14:36;;;;;;;0.00;0.00;;;16.40;99.90;;;;;;5033247;28;20037;-69
2023/08/02 04:17:01;;;;;;;0.75;0.43;;;16.40;99.90;;;;;;5034404;28;20049;-69
2023/08/02 04:19:27;;;;;;;0.20;0.20;;;16.40;99.90;;;;;;5028817;28;20049;-69
2023/08/02 04:21:53;;;;;;;0.00;0.00;;;16.40;99.90;;;;;;5039508;28;20055;-69
2023/08/02 04:24:19;;;;;;;0.00;0.00;;;16.40;99.90;;;;;;5039674;28;20049;-69
2023/08/02 04:26:44;;;;;;;0.43;0.30;;;16.30;99.90;;;;;;5040421;28;20469;-69
2023/08/02 04:29:10;;;;;;;1.60;1.50;;;16.30;99.90;;;;;;5043346;28;20049;-69
2023/08/02 04:31:35;;;;;;;0.00;0.00;;;16.30;99.90;;;;;;5024449;28;20048;-69
2023/08/02 04:34:01;;;;;;;0.10;0.10;;;16.30;99.90;;;;;;5020700;28;20116;-69
2023/08/02 04:36:26;;;;;;;0.00;0.00;;;16.30;99.90;;;;;;5040389;28;20091;-70
2023/08/02 04:38:53;;;;;;;0.13;0.13;;;16.30;99.90;;;;;;5038484;28;20424;-69
2023/08/02 04:41:19;;;;;;;0.00;0.00;;;16.30;99.90;;;;;;5026534;28;20108;-69
2023/08/02 04:43:46;;;;;;;5.47;1.98;;;16.30;99.90;;;;;;5047513;28;20132;-70
2023/08/02 04:46:12;;;;;;;0.35;0.35;;;16.30;99.90;;;;;;5041142;28;20041;-69
2023/08/02 04:48:38;;;;;;;0.00;0.00;;;16.30;99.90;;;;;;5021924;28;20048;-69
2023/08/02 04:51:08;;;;;;;0.10;0.10;;;16.30;99.90;;;;;;5024829;28;20481;-69
2023/08/02 04:53:34;;;;;;;0.10;0.10;;;16.30;99.90;;;;;;5027970;28;20060;-69
2023/08/02 04:55:59;;;;;;;0.30;0.30;;;16.30;99.90;;;;;;5047332;28;20059;-69
2023/08/02 04:58:26;;;;;;;0.10;0.10;;;16.30;99.90;;;;;;5041781;28;20482;-69
2023/08/02 05:00:51;;;;;;;5.57;1.25;;;16.30;99.90;;;;;;5034736;28;20120;-69
2023/08/02 05:03:17;;;;;;;0.00;0.00;;;16.20;99.90;;;;;;5029922;28;20136;-69
2023/08/02 05:05:43;;;;;;;0.65;0.65;;;16.20;99.90;;;;;;5043487;28;20075;-69
2023/08/02 05:08:08;;;;;;;0.00;0.00;;;16.20;99.90;;;;;;5048054;28;20040;-69
2023/08/02 05:10:37;;;;;;;0.13;0.13;;;16.20;99.90;;;;;;5034479;28;20073;-69
2023/08/02 05:13:05;;;;;;;0.32;0.32;;;16.10;99.90;;;;;;5039839;28;20037;-69
2023/08/02 05:15:38;;;;;;;0.20;0.20;;;16.20;99.90;;;;;;5046352;28;20044;-69
2023/08/02 05:18:03;;;;;;;0.20;0.20;;;16.20;99.90;;;;;;5036247;28;20048;-69
2023/08/02 05:20:33;;;;;;;0.85;0.85;;;16.20;99.90;;;;;;5035935;28;20388;-69
2023/08/02 05:22:59;;;;;;;0.05;0.05;;;16.20;99.90;;;;;;5044702;28;20098;-69
2023/08/02 05:25:31;;;;;;;0.43;0.43;;;16.10;99.90;;;;;;5028786;28;20053;-69
2023/08/02 05:27:57;;;;;;;0.00;0.00;;;16.20;99.90;;;;;;5021114;28;20049;-69
2023/08/02 05:30:22;;;;;;;0.00;0.00;;;16.20;99.90;;;;;;5044738;28;20044;-69
2023/08/02 05:32:48;;;;;;;0.00;0.00;;;16.20;99.90;;;;;;5043518;28;20112;-69
2023/08/02 05:35:14;;;;;;;0.10;0.10;;;16.20;99.90;;;;;;5037677;28;20052;-68
2023/08/02 05:37:40;;;;;;;0.52;0.30;;;16.20;99.90;;;;;;5018970;28;20045;-69
2023/08/02 05:40:06;;;;;;;0.00;0.00;;;16.20;99.90;;;;;;5025361;28;20063;-69
2023/08/02 05:42:32;;;;;;;0.08;0.05;;;16.20;99.90;;;;;;5034275;28;20487;-69
2023/08/02 05:44:58;;;;;;;0.75;0.52;;;16.10;99.90;;;;;;5038365;28;20041;-69
2023/08/02 05:47:23;;;;;;;0.03;0.03;;;16.20;99.90;;;;;;5033562;28;20071;-69
2023/08/02 05:49:49;;;;;;;0.35;0.30;;;16.20;99.90;;;;;;5042428;28;20045;-69
2023/08/02 05:52:15;;;;;;;0.32;0.32;;;16.30;99.90;;;;;;5037554;28;20487;-69
2023/08/02 05:54:40;;;;;;;0.00;0.00;;;16.20;99.90;;;;;;5024963;28;20047;-70
2023/08/02 05:57:07;;;;;;;0.28;0.28;;;16.30;99.90;;;;;;5044213;28;20045;-69
2023/08/02 05:59:33;;;;;;;0.57;0.08;;;16.30;99.90;;;;;;5041163;28;20052;-69
2023/08/02 06:01:59;;;;;;;0.00;0.00;;;16.40;99.90;;;;;;5038346;28;20504;-69
2023/08/02 06:04:25;;;;;;;0.80;0.55;;;16.40;99.90;;;;;;5039842;28;20041;-69
2023/08/02 06:06:51;;;;;;;0.10;0.10;;;16.40;99.90;;;;;;5047308;28;20048;-69
2023/08/02 06:09:16;;;;;;;0.00;0.00;;;16.40;99.90;;;;;;5025238;28;20083;-69
2023/08/02 06:11:42;;;;;;;0.20;0.20;;;16.30;99.90;;;;;;5042116;28;20038;-69
2023/08/02 06:14:07;;;;;;;1.60;0.60;;;16.40;99.90;;;;;;5028185;28;20071;-70
2023/08/02 06:16:33;;;;;;;0.30;0.30;;;16.40;99.90;;;;;;5044625;28;20077;-69
2023/08/02 06:18:59;;;;;;;0.10;0.10;;;16.40;99.90;;;;;;5037639;28;20065;-70
2023/08/02 06:21:24;;;;;;;0.00;0.00;;;16.40;99.90;;;;;;5046046;28;20095;-70
2023/08/02 06:23:50;;;;;;;0.00;0.00;;;16.40;99.90;;;;;;5044048;28;20037;-70
2023/08/02 06:26:16;;;;;;;0.85;0.85;;;16.40;99.90;;;;;;5046480;28;20102;-70
2023/08/02 06:28:42;;;;;;;0.28;0.28;;;16.50;99.90;;;;;;5045268;28;20041;-69
2023/08/02 06:31:07;;;;;;;0.00;0.00;;;16.40;99.90;;;;;;5035847;28;20042;-69
2023/08/02 06:33:33;;;;;;;0.00;0.00;;;16.50;99.90;;;;;;5024946;28;20111;-69
2023/08/02 06:35:59;;;;;;;2.20;1.00;;;16.50;99.90;;;;;;5051353;28;20041;-69
2023/08/02 06:38:24;;;;;;;0.10;0.10;;;16.40;99.90;;;;;;5041175;28;20072;-69
2023/08/02 06:40:50;;;;;;;0.13;0.13;;;16.40;99.90;;;;;;5040029;28;20456;-69
2023/08/02 06:43:16;;;;;;;0.00;0.00;;;16.40;99.90;;;;;;5046875;28;20120;-69
2023/08/02 06:45:47;;;;;;;0.40;0.40;;;16.50;99.90;;;;;;5039868;28;20045;-69
2023/08/02 06:48:22;;;;;;;0.10;0.10;;;16.40;99.90;;;;;;5041835;28;20041;-69
2023/08/02 06:50:47;;;;;;;0.30;0.30;;;16.50;99.90;;;;;;5045132;28;20088;-69
2023/08/02 06:53:13;;;;;;;0.05;0.05;;;16.50;99.90;;;;;;5041159;28;20080;-69
2023/08/02 06:55:39;;;;;;;0.10;0.10;;;16.50;99.90;;;;;;5024150;28;20049;-69
2023/08/02 06:58:04;;;;;;;0.00;0.00;;;16.50;99.90;;;;;;5039043;28;20041;-69
2023/08/02 07:00:30;;;;;;;0.10;0.10;;;16.50;99.90;;;;;;5030902;28;20041;-69
2023/08/02 07:02:59;;;;;;;0.57;0.57;;;16.50;99.90;;;;;;5027251;28;20056;-69
2023/08/02 07:05:28;;;;;;;0.10;0.10;;;16.60;99.90;;;;;;5036897;28;20045;-69
2023/08/02 07:07:57;;;;;;;0.20;0.20;;;16.60;99.90;;;;;;5032469;28;20178;-68
2023/08/02 07:10:26;;;;;;;0.00;0.00;;;16.60;99.90;;;;;;5044397;28;20042;-69
2023/08/02 07:12:52;;;;;;;0.10;0.10;;;16.60;99.90;;;;;;5047093;28;20060;-69
2023/08/02 07:15:18;;;;;;;0.10;0.10;;;16.60;99.90;;;;;;5047371;28;20045;-69
2023/08/02 07:17:45;;;;;;;2.13;0.98;;;16.70;99.90;;;;;;5042852;28;20064;-69
2023/08/02 07:20:12;;;;;;;0.70;0.15;;;16.60;99.90;;;;;;5041068;28;20420;-69
2023/08/02 07:22:43;;;;;;;0.00;0.00;;;16.60;99.90;;;;;;5050161;28;20037;-68
2023/08/02 07:25:09;;;;;;;0.10;0.10;;;16.60;99.90;;;;;;5035617;28;20462;-68
2023/08/02 07:27:35;;;;;;;0.75;0.50;;;16.60;99.90;;;;;;5040054;28;20064;-68
2023/08/02 07:30:02;;;;;;;2.30;1.17;;;16.50;99.90;;;;;;5048276;28;20393;-68
2023/08/02 07:32:28;;;;;;;0.43;0.43;;;16.50;99.90;;;;;;5049337;28;20060;-68
2023/08/02 07:34:54;;;;;;;0.00;0.00;;;16.60;99.90;;;;;;5035997;28;20392;-68
2023/08/02 07:37:20;;;;;;;0.98;0.90;;;16.50;99.90;;;;;;5045879;28;20052;-68
2023/08/02 07:39:46;;;;;;;0.00;0.00;;;16.50;99.90;;;;;;5048814;28;20041;-68
2023/08/02 07:42:11;;;;;;;0.20;0.20;;;16.50;99.90;;;;;;5040690;28;20041;-68
2023/08/02 07:44:37;;;;;;;0.10;0.10;;;16.50;99.90;;;;;;5026847;28;20048;-69
2023/08/02 07:47:04;;;;;;;0.00;0.00;;;16.50;99.90;;;;;;5028677;28;20044;-69
2023/08/02 07:49:31;;;;;;;0.00;0.00;;;16.50;99.90;;;;;;5047738;28;20041;-69
2023/08/02 07:51:56;;;;;;;0.10;0.10;;;16.50;99.90;;;;;;5027237;28;20041;-69
2023/08/02 07:54:22;;;;;;;0.10;0.10;;;16.50;99.90;;;;;;5028216;28;20048;-69
2023/08/02 07:56:48;;;;;;;0.47;0.47;;;16.40;99.90;;;;;;5030263;28;20091;-69
2023/08/02 07:59:13;;;;;;;0.50;0.50;;;16.40;99.90;;;;;;5028596;28;20034;-69
2023/08/02 08:01:42;;;;;;;0.05;0.05;;;16.40;99.90;;;;;;5019167;28;20088;-69
2023/08/02 08:04:08;;;;;;;0.00;0.00;;;16.40;99.90;;;;;;5014475;28;20473;-69
2023/08/02 08:06:34;;;;;;;0.25;0.25;;;16.30;99.90;;;;;;5011866;28;20038;-69
2023/08/02 08:08:59;;;;;;;2.65;1.27;;;16.30;99.90;;;;;;5019868;28;20074;-69
2023/08/02 08:11:29;;;;;;;0.15;0.15;;;16.30;99.90;;;;;;5012895;28;20046;-69
2023/08/02 08:13:55;;;;;;;0.00;0.00;;;16.30;99.90;;;;;;5024188;28;20038;-69
2023/08/02 08:16:21;;;;;;;1.55;0.57;;;16.30;99.90;;;;;;5024574;28;20072;-69
2023/08/02 08:18:46;;;;;;;0.10;0.10;;;16.30;99.90;;;;;;5028841;28;20037;-69
2023/08/02 08:21:12;;;;;;;0.17;0.17;;;16.20;99.90;;;;;;5029815;28;20096;-69
2023/08/02 08:23:38;;;;;;;1.08;1.02;;;16.20;99.90;;;;;;5017950;28;20049;-69
2023/08/02 08:26:04;;;;;;;0.90;0.38;;;16.20;99.90;;;;;;5023269;28;20049;-69
2023/08/02 08:28:29;;;;;;;0.05;0.05;;;16.20;99.90;;;;;;5027446;28;20034;-69
2023/08/02 08:31:00;;;;;;;0.03;0.03;;;16.20;99.90;;;;;;5023621;28;20075;-68
2023/08/02 08:33:25;;;;;;;0.55;0.40;;;16.10;99.90;;;;;;5027130;28;20105;-69
2023/08/02 08:35:51;;;;;;;0.85;0.85;;;16.10;99.90;;;;;;5017473;28;20091;-69
2023/08/02 08:38:16;;;;;;;0.00;0.00;;;16.10;99.90;;;;;;5023796;28;20037;-69
2023/08/02 08:40:48;;;;;;;0.28;0.20;;;16.10;99.90;;;;;;5013444;28;20049;-69
2023/08/02 08:43:14;;;;;;;0.00;0.00;;;16.10;99.90;;;;;;5021047;28;20210;-69
2023/08/02 08:45:39;;;;;;;0.00;0.00;;;16.10;99.90;;;;;;5018936;28;20548;-69
2023/08/02 08:48:06;;;;;;;0.10;0.10;;;16.20;99.90;;;;;;5027307;28;20377;-69
2023/08/02 08:50:32;;;;;;;0.00;0.00;;;16.20;99.90;;;;;;5022557;28;20072;-69
2023/08/02 08:53:04;;;;;;;0.00;0.00;;;16.20;99.90;;;;;;5045707;28;20132;-69
2023/08/02 08:55:32;;;;;;;0.63;0.63;;;16.20;99.90;;;;;;5018076;28;20049;-69
2023/08/02 08:57:57;;;;;;;0.05;0.05;;;16.20;99.90;;;;;;5036438;28;20091;-70
2023/08/02 09:00:23;;;;;;;0.00;0.00;;;16.20;99.90;;;;;;5038249;28;20033;-68
2023/08/02 09:02:50;;;;;;;0.00;0.00;;;16.20;99.90;;;;;;5043272;28;20045;-69
2023/08/02 09:05:16;;;;;;;0.00;0.00;;;16.20;99.90;;;;;;5020156;28;20050;-68
2023/08/02 09:07:41;;;;;;;0.00;0.00;;;16.30;99.90;;;;;;5023919;28;20045;-67
2023/08/02 09:10:08;;;;;;;0.00;0.00;;;16.20;99.90;;;;;;5022769;28;20509;-68
2023/08/02 09:12:44;;;;;;;0.00;0.00;;;16.20;99.90;;;;;;5034237;28;20037;-68
2023/08/02 09:15:10;;;;;;;0.10;0.10;;;16.20;99.90;;;;;;5033885;28;20136;-67
2023/08/02 09:17:45;;;;;;;0.10;0.10;;;16.30;99.90;;;;;;5040720;28;20133;-68
2023/08/02 09:20:11;;;;;;;0.00;0.00;;;16.30;99.90;;;;;;5039072;28;20083;-68
2023/08/02 09:22:37;;;;;;;1.08;0.75;;;16.30;99.90;;;;;;5036526;28;20037;-68
2023/08/02 09:25:07;;;;;;;1.98;1.05;;;16.20;99.90;;;;;;5025456;28;20106;-68
2023/08/02 09:27:33;;;;;;;0.15;0.10;;;16.30;99.90;;;;;;5026396;28;20041;-68
2023/08/02 09:29:58;;;;;;;0.00;0.00;;;16.30;99.90;;;;;;5043328;28;20088;-68
2023/08/02 09:32:25;;;;;;;0.00;0.00;;;16.40;99.90;;;;;;5036727;28;20073;-68
2023/08/02 09:34:55;;;;;;;0.00;0.00;;;16.40;99.90;;;;;;5038535;28;20045;-68
2023/08/02 09:37:35;;;;;;;0.20;0.20;;;16.40;99.90;;;;;;5044367;28;20045;-68
2023/08/02 09:40:04;;;;;;;0.00;0.00;;;16.50;99.90;;;;;;5042525;28;20049;-69
2023/08/02 09:42:30;;;;;;;0.20;0.20;;;16.50;99.90;;;;;;5043602;28;20033;-68
2023/08/02 09:45:03;;;;;;;0.15;0.15;;;16.60;99.90;;;;;;5044181;28;20374;-68
2023/08/02 09:47:29;;;;;;;0.05;0.05;;;16.50;99.90;;;;;;5040827;28;20045;-69
2023/08/02 09:50:06;;;;;;;0.10;0.10;;;16.50;99.90;;;;;;5036581;28;20044;-68
2023/08/02 09:52:33;;;;;;;0.30;0.20;;;16.40;99.90;;;;;;5039273;28;20049;-68
2023/08/02 09:54:59;;;;;;;0.00;0.00;;;16.40;99.90;;;;;;5043613;28;20473;-69
2023/08/02 09:57:27;;;;;;;0.00;0.00;;;16.50;99.90;;;;;;5043111;28;20044;-69
2023/08/02 10:00:00;;;;;;;0.10;0.10;;;16.50;99.90;;;;;;5039811;28;20441;-68
2023/08/02 10:02:28;;;;;;;0.20;0.20;;;16.50;99.90;;;;;;5041307;28;20045;-67
2023/08/02 10:04:56;;;;;;;0.10;0.10;;;16.50;99.90;;;;;;5029614;28;20049;-68
2023/08/02 10:07:29;;;;;;;0.05;0.05;;;16.60;99.90;;;;;;5042395;28;20087;-68
2023/08/02 10:09:59;;;;;;;;;;;16.60;99.90;;;;;;5039218;28;20107;-68
2023/08/02 10:12:27;;;;;;;0.40;0.40;;;16.60;99.90;;;;;;5032552;28;19921;-69
2023/08/02 10:14:56;;;;;;;0.10;0.10;;;16.60;99.90;;;;;;5049954;28;20055;-69
2023/08/02 10:17:25;;;;;;;0.10;0.10;;;16.60;99.90;;;;;;5047369;28;20053;-69
2023/08/02 10:19:51;;;;;;;0.00;0.00;;;16.70;99.90;;;;;;5045115;28;20037;-69
2023/08/02 10:22:18;;;;;;;0.00;0.00;;;16.70;99.90;;;;;;5032344;28;20059;-68
2023/08/02 10:24:45;;;;;;;0.00;0.00;;;16.70;99.90;;;;;;5030387;28;20430;-69
2023/08/02 10:27:13;;;;;;;0.00;0.00;;;16.70;99.90;;;;;;5041394;28;20052;-69
2023/08/02 10:29:40;;;;;;;0.03;0.03;;;16.70;99.90;;;;;;5047292;28;20114;-69
2023/08/02 10:32:19;;;;;;;0.13;0.13;;;16.60;99.90;;;;;;5051292;28;20045;-69
2023/08/02 10:34:47;;;;;;;0.22;0.22;;;16.60;99.90;;;;;;5030564;28;20432;-69
2023/08/02 10:37:13;;;;;;;0.22;0.20;;;16.60;99.90;;;;;;5040192;28;20071;-69
2023/08/02 10:39:48;;;;;;;0.00;0.00;;;16.70;99.90;;;;;;5038965;28;20136;-69
2023/08/02 10:42:23;;;;;;;0.05;0.05;;;16.70;99.90;;;;;;5042163;28;20481;-69
2023/08/02 10:44:54;;;;;;;0.10;0.10;;;16.70;99.90;;;;;;5024101;28;20496;-69
2023/08/02 10:47:38;;;;;;;0.00;0.00;;;16.60;99.90;;;;;;5048879;28;20080;-70
2023/08/02 10:50:05;;;;;;;0.00;0.00;;;16.60;99.90;;;;;;5032446;28;20091;-69
2023/08/02 10:52:33;;;;;;;0.13;0.13;;;16.60;99.90;;;;;;5034140;28;20393;-68
2023/08/02 10:55:09;;;;;;;1.65;0.55;;;16.50;99.90;;;;;;5047344;28;20644;-69
2023/08/02 10:57:36;;;;;;;0.20;0.20;;;16.60;99.90;;;;;;5042333;28;20075;-69
2023/08/02 11:00:24;;;;;;;0.10;0.10;;;16.60;99.90;;;;;;5038617;28;20095;-69
2023/08/02 11:02:52;;;;;;;0.00;0.00;;;16.60;99.90;;;;;;5026529;28;20477;-69
2023/08/02 11:05:46;;;;;;;0.00;0.00;;;16.70;99.90;;;;;;5040241;28;20048;-69
2023/08/02 11:08:13;;;;;;;0.00;0.00;;;16.60;99.90;;;;;;5047378;28;20041;-69
2023/08/02 11:10:49;;;;;;;0.25;0.25;;;16.70;99.90;;;;;;5045739;28;20049;-69
2023/08/02 11:13:15;;;;;;;0.28;0.28;;;16.80;99.90;;;;;;5036931;28;20061;-69
2023/08/02 11:15:41;;;;;;;0.43;0.30;;;16.90;99.90;;;;;;5049262;28;20121;-69
2023/08/02 11:18:08;;;;;;;0.00;0.00;;;17.00;99.90;;;;;;5038462;28;20459;-69
2023/08/02 11:20:37;;;;;;;0.00;0.00;;;17.10;99.90;;;;;;5040237;28;20040;-68
2023/08/02 11:23:19;;;;;;;0.00;0.00;;;17.20;99.90;;;;;;5048810;28;20049;-69
2023/08/02 11:25:47;;;;;;;0.00;0.00;;;17.40;99.90;;;;;;5020139;28;20265;-69
2023/08/02 11:28:13;;;;;;;0.00;0.00;;;17.40;99.90;;;;;;5034762;28;20554;-68
2023/08/02 11:30:39;;;;;;;0.00;0.00;;;17.40;99.90;;;;;;5046668;28;20052;-70
2023/08/02 11:33:06;;;;;;;0.28;0.28;;;17.50;99.90;;;;;;5028989;28;20098;-69
2023/08/02 11:35:32;;;;;;;12.40;1.00;;;17.70;99.90;;;;;;5045613;28;20500;-69
2023/08/02 11:37:58;;;;;;;0.00;0.00;;;17.90;99.90;;;;;;5049704;28;20159;-69
2023/08/02 11:40:35;;;;;;;0.00;0.00;;;18.00;99.90;;;;;;5040399;28;20110;-70
2023/08/02 11:43:01;;;;;;;0.10;0.10;;;18.00;99.90;;;;;;5041293;28;20044;-70
2023/08/02 11:45:34;;;;;;;0.20;0.10;;;17.90;99.90;;;;;;5034875;28;20052;-70
2023/08/02 11:48:00;;;;;;;1.25;0.65;;;17.90;99.90;;;;;;5039285;28;20048;-70
2023/08/02 11:50:28;;;;;;;0.15;0.15;;;17.90;99.90;;;;;;5044822;28;20046;-70
2023/08/02 11:53:04;;;;;;;0.00;0.00;;;17.90;99.90;;;;;;5034152;28;20045;-70
2023/08/02 11:55:31;;;;;;;0.10;0.10;;;17.90;99.90;;;;;;5035292;28;20055;-70
2023/08/02 11:57:57;;;;;;;0.13;0.13;;;17.90;99.90;;;;;;5046204;28;20033;-70
2023/08/02 12:00:23;;;;;;;0.00;0.00;;;17.90;99.90;;;;;;5040458;28;20045;-70
2023/08/02 12:02:49;;;;;;;0.00;0.00;;;17.90;99.90;;;;;;5036064;28;20091;-69
2023/08/02 12:05:19;;;;;;;0.00;0.00;;;17.80;99.90;;;;;;5043363;28;20076;-69
2023/08/02 12:07:44;;;;;;;0.00;0.00;;;17.80;99.90;;;;;;5027147;28;20052;-70
2023/08/02 12:10:25;;;;;;;0.10;0.10;;;17.80;99.90;;;;;;5038060;28;20124;-70
2023/08/02 12:12:50;;;;;;;0.00;0.00;;;17.80;99.90;;;;;;5040426;28;20044;-70
2023/08/02 12:15:18;;;;;;;0.00;0.00;;;17.90;99.90;;;;;;5038615;28;20037;-70
2023/08/02 12:17:44;;;;;;;0.00;0.00;;;17.90;99.90;;;;;;5028159;28;20404;-70
2023/08/02 12:20:28;;;;;;;0.08;0.08;;;18.10;99.90;;;;;;5037426;28;20081;-70
2023/08/02 12:22:54;;;;;;;0.05;0.05;;;18.60;99.90;;;;;;5038727;28;20472;-69
2023/08/02 12:25:20;;;;;;;0.05;0.05;;;19.10;99.90;;;;;;5038658;28;20083;-70
2023/08/02 12:28:06;;;;;;;0.52;0.50;;;19.50;99.90;;;;;;5040243;28;20041;-70
2023/08/02 12:30:32;;;;;;;0.95;0.52;;;19.40;99.90;;;;;;5040210;28;20106;-70
2023/08/02 12:32:58;;;;;;;0.08;0.08;;;19.40;99.90;;;;;;5036204;28;20037;-70
2023/08/02 12:35:24;;;;;;;0.32;0.32;;;19.50;99.90;;;;;;5039419;28;20049;-70
2023/08/02 12:37:51;;;;;;;0.00;0.00;;;19.60;99.90;;;;;;5042795;28;20037;-71
2023/08/02 12:40:16;;;;;;;0.10;0.10;;;19.70;99.90;;;;;;5040586;28;20064;-70
2023/08/02 12:42:42;;;;;;;0.00;0.00;;;20.40;99.90;;;;;;5041960;28;20080;-70
2023/08/02 12:45:08;;;;;;;0.10;0.10;;;20.90;99.90;;;;;;5037666;28;20049;-70
2023/08/02 12:47:34;;;;;;;0.00;0.00;;;21.20;99.90;;;;;;5036491;28;20037;-69